Time;durP1;ratioP1;P1;durP2;ratioP2;P2;SDS_P1;SDS_P2;PMS_P1;PMS_P2;Temp;Humidity;BMP_temperature;BMP_pressure;BME280_temperature;BME280_humidity;BME280_pressure;Samples;Min_cycle;Max_cycle;Signal;HPM_P1;HPM_P2
2021/12/28 00:01:45;;;;;;;2.80;1.90;;;6.90;99.90;;;;;;2018405;70;21167;-73
2021/12/28 00:04:12;;;;;;;3.67;1.85;;;6.90;99.90;;;;;;2019454;70;21044;-73
2021/12/28 00:06:38;;;;;;;4.42;2.22;;;6.80;99.90;;;;;;2021242;71;21452;-72
2021/12/28 00:09:04;;;;;;;4.33;2.30;;;6.70;99.90;;;;;;2022264;70;21413;-73
2021/12/28 00:11:30;;;;;;;6.70;2.95;;;6.60;99.90;;;;;;2020655;70;21064;-73
2021/12/28 00:14:01;;;;;;;3.37;2.70;;;6.60;99.90;;;;;;2020276;70;21187;-73
2021/12/28 00:16:31;;;;;;;5.22;2.80;;;6.60;99.90;;;;;;2020514;70;21134;-73
2021/12/28 00:18:52;;;;;;;4.62;2.45;;;6.50;99.90;;;;;;2021042;70;21488;-73
2021/12/28 00:21:18;;;;;;;5.72;2.37;;;6.50;99.90;;;;;;2021642;71;21456;-71
2021/12/28 00:23:44;;;;;;;2.08;1.90;;;6.60;99.90;;;;;;2022140;70;21121;-72
2021/12/28 00:26:11;;;;;;;2.60;1.50;;;6.70;99.90;;;;;;2023200;71;21152;-71
2021/12/28 00:28:37;;;;;;;3.87;1.60;;;6.70;99.90;;;;;;2018523;70;21129;-72
2021/12/28 00:31:03;;;;;;;6.25;2.45;;;6.60;99.90;;;;;;2019334;70;21024;-72
2021/12/28 00:33:29;;;;;;;5.55;1.98;;;6.60;99.90;;;;;;2020136;70;21487;-73
2021/12/28 00:35:55;;;;;;;3.10;2.02;;;6.50;99.90;;;;;;2019910;70;21448;-73
2021/12/28 00:38:22;;;;;;;5.35;2.35;;;6.50;99.90;;;;;;2019744;70;21386;-72
2021/12/28 00:40:48;;;;;;;6.35;2.60;;;6.40;99.90;;;;;;2020188;71;21040;-72
2021/12/28 00:43:14;;;;;;;6.80;2.52;;;6.40;99.90;;;;;;2021792;69;21125;-73
2021/12/28 00:45:40;;;;;;;4.25;2.62;;;6.40;99.90;;;;;;2022396;71;21091;-72
2021/12/28 00:48:06;;;;;;;6.47;2.60;;;6.30;99.90;;;;;;2020565;70;21086;-72
2021/12/28 00:50:33;;;;;;;3.47;2.10;;;6.30;99.90;;;;;;2022622;70;21048;-73
2021/12/28 00:52:59;;;;;;;5.30;2.37;;;6.20;99.90;;;;;;2022547;70;21476;-73
2021/12/28 00:55:25;;;;;;;5.92;2.60;;;6.30;99.90;;;;;;2021010;70;21440;-72
2021/12/28 00:57:51;;;;;;;5.37;1.90;;;6.40;99.90;;;;;;2022767;71;21456;-72
2021/12/28 01:00:18;;;;;;;4.17;1.90;;;6.30;99.90;;;;;;2020518;70;21047;-73
2021/12/28 01:02:44;;;;;;;4.22;1.98;;;6.30;99.90;;;;;;2022667;70;21121;-73
2021/12/28 01:05:10;;;;;;;3.25;1.57;;;6.20;99.90;;;;;;2019823;70;21070;-73
2021/12/28 01:07:36;;;;;;;6.08;2.00;;;6.00;99.90;;;;;;2021503;70;21108;-73
2021/12/28 01:10:03;;;;;;;3.42;1.32;;;5.90;99.90;;;;;;2022987;71;21036;-72
2021/12/28 01:12:29;;;;;;;3.65;1.57;;;6.00;99.90;;;;;;2018255;70;21206;-73
2021/12/28 01:14:55;;;;;;;12.07;2.02;;;6.00;99.90;;;;;;2018199;70;21035;-73
2021/12/28 01:17:21;;;;;;;4.08;1.80;;;6.00;99.90;;;;;;2019682;70;21043;-73
2021/12/28 01:19:47;;;;;;;3.12;1.87;;;6.00;99.90;;;;;;2022125;70;21004;-72
2021/12/28 01:22:13;;;;;;;1.65;1.30;;;6.00;99.90;;;;;;2020291;70;21031;-73
2021/12/28 01:24:39;;;;;;;3.87;1.70;;;5.90;99.90;;;;;;2021901;70;21043;-73
2021/12/28 01:27:06;;;;;;;3.72;1.45;;;6.00;99.90;;;;;;2021392;70;21040;-73
2021/12/28 01:29:32;;;;;;;3.45;1.80;;;5.90;99.90;;;;;;2021377;70;21051;-73
2021/12/28 01:31:59;;;;;;;3.60;1.82;;;5.80;99.90;;;;;;2019195;70;21038;-73
2021/12/28 01:34:25;;;;;;;2.52;1.82;;;6.00;99.90;;;;;;2020848;70;21051;-72
2021/12/28 01:36:51;;;;;;;3.22;2.10;;;5.90;99.90;;;;;;2021033;70;21043;-73
2021/12/28 01:39:17;;;;;;;6.60;2.75;;;5.80;99.90;;;;;;2015032;70;21009;-72
2021/12/28 01:41:43;;;;;;;3.25;2.17;;;5.80;99.90;;;;;;2021795;71;21097;-73
2021/12/28 01:44:10;;;;;;;3.52;2.17;;;5.60;99.90;;;;;;2022290;70;21566;-73
2021/12/28 01:46:36;;;;;;;3.67;2.62;;;5.60;99.90;;;;;;2021414;70;21529;-71
2021/12/28 01:49:02;;;;;;;2.40;2.17;;;5.60;99.90;;;;;;2022289;71;21504;-73
2021/12/28 01:51:28;;;;;;;3.40;2.30;;;5.60;99.90;;;;;;2022626;70;21142;-73
2021/12/28 01:53:55;;;;;;;3.20;2.40;;;5.50;99.90;;;;;;2019557;70;21021;-71
2021/12/28 01:56:22;;;;;;;5.05;2.52;;;5.50;99.90;;;;;;2021216;70;21054;-73
2021/12/28 01:58:48;;;;;;;2.40;2.17;;;5.50;99.90;;;;;;2022307;70;21018;-73
2021/12/28 02:01:14;;;;;;;5.20;2.62;;;5.50;99.90;;;;;;2020928;70;21044;-73
2021/12/28 02:03:40;;;;;;;4.58;2.33;;;5.70;99.90;;;;;;2022110;70;21079;-73
2021/12/28 02:06:06;;;;;;;3.42;2.72;;;5.70;99.90;;;;;;2018726;70;21567;-73
2021/12/28 02:08:32;;;;;;;2.83;2.22;;;5.70;99.90;;;;;;2019590;70;21040;-73
2021/12/28 02:10:58;;;;;;;4.35;2.55;;;5.60;99.90;;;;;;2018585;71;21025;-71
2021/12/28 02:13:25;;;;;;;5.17;2.02;;;5.40;99.90;;;;;;2019698;70;21039;-71
2021/12/28 02:15:51;;;;;;;3.67;2.60;;;5.40;99.90;;;;;;2019926;70;21091;-72
2021/12/28 02:18:17;;;;;;;4.80;2.30;;;5.30;99.90;;;;;;2020707;70;21130;-72
2021/12/28 02:20:43;;;;;;;5.87;2.60;;;5.40;99.90;;;;;;2021149;69;21128;-72
2021/12/28 02:23:09;;;;;;;3.70;2.47;;;5.30;99.90;;;;;;2020204;70;21040;-73
2021/12/28 02:25:35;;;;;;;2.95;2.55;;;5.30;99.90;;;;;;2020569;70;21109;-72
2021/12/28 02:28:01;;;;;;;2.17;1.98;;;5.20;99.90;;;;;;2019563;70;21116;-73
2021/12/28 02:30:27;;;;;;;3.00;2.12;;;5.30;99.90;;;;;;2020286;70;21114;-72
2021/12/28 02:32:54;;;;;;;9.83;2.80;;;5.20;99.90;;;;;;2018061;70;21012;-72
2021/12/28 02:35:20;;;;;;;2.60;2.10;;;5.10;99.90;;;;;;2019972;70;21056;-72
2021/12/28 02:37:46;;;;;;;4.70;2.72;;;5.30;99.90;;;;;;2020153;70;21055;-72
2021/12/28 02:40:12;;;;;;;3.47;2.30;;;5.30;99.90;;;;;;2020738;70;21524;-72
2021/12/28 02:42:38;;;;;;;4.87;2.50;;;5.30;99.90;;;;;;2021056;70;21517;-72
2021/12/28 02:45:09;;;;;;;6.35;2.65;;;5.30;99.90;;;;;;2020696;70;21444;-73
2021/12/28 02:47:32;;;;;;;5.03;2.80;;;5.30;99.90;;;;;;2019780;70;21139;-72
2021/12/28 02:49:58;;;;;;;3.85;2.25;;;5.20;99.90;;;;;;2017881;70;21118;-71
2021/12/28 02:52:24;;;;;;;3.20;2.12;;;5.10;99.90;;;;;;2019489;70;21501;-73
2021/12/28 02:54:50;;;;;;;5.33;2.37;;;5.10;99.90;;;;;;2019402;70;21517;-72
2021/12/28 02:57:16;;;;;;;4.55;2.40;;;5.10;99.90;;;;;;2022914;70;21465;-72
2021/12/28 02:59:43;;;;;;;2.30;2.02;;;5.00;99.90;;;;;;2019783;70;21121;-72
2021/12/28 03:02:09;;;;;;;6.15;2.00;;;4.90;99.90;;;;;;2021445;70;21125;-71
2021/12/28 03:04:35;;;;;;;9.68;2.95;;;4.90;99.90;;;;;;2020210;70;21048;-72
2021/12/28 03:07:01;;;;;;;4.35;2.37;;;4.90;99.90;;;;;;2021300;70;21038;-73
2021/12/28 03:09:27;;;;;;;4.50;2.60;;;4.90;99.90;;;;;;2018795;70;21109;-73
2021/12/28 03:11:53;;;;;;;8.73;2.58;;;4.90;99.90;;;;;;2018462;70;21036;-73
2021/12/28 03:14:19;;;;;;;6.47;2.00;;;5.00;99.90;;;;;;2022855;70;21020;-73
2021/12/28 03:16:51;;;;;;;5.78;2.77;;;4.90;99.90;;;;;;2021135;70;21047;-73
2021/12/28 03:19:16;;;;;;;3.70;2.30;;;4.90;99.90;;;;;;2016856;70;21111;-72
2021/12/28 03:21:42;;;;;;;3.33;2.33;;;4.90;99.90;;;;;;2021404;70;21051;-74
2021/12/28 03:24:08;;;;;;;7.72;2.27;;;4.90;99.90;;;;;;2020564;70;21047;-73
2021/12/28 03:26:34;;;;;;;5.50;2.77;;;5.00;99.90;;;;;;2020632;71;21405;-73
2021/12/28 03:29:01;;;;;;;5.08;2.37;;;5.00;99.90;;;;;;2018134;70;21507;-73
2021/12/28 03:31:27;;;;;;;2.92;2.40;;;5.10;99.90;;;;;;2019163;70;21416;-73
2021/12/28 03:33:53;;;;;;;4.85;2.90;;;5.10;99.90;;;;;;2021751;70;21476;-73
2021/12/28 03:36:19;;;;;;;9.60;2.50;;;5.00;99.90;;;;;;2020899;70;21056;-72
2021/12/28 03:38:45;;;;;;;4.92;2.50;;;5.00;99.90;;;;;;2018817;70;21117;-73
2021/12/28 03:41:11;;;;;;;4.05;2.92;;;5.10;99.90;;;;;;2021194;70;21059;-72
2021/12/28 03:43:37;;;;;;;4.12;2.67;;;5.00;99.90;;;;;;2020348;70;21008;-75
2021/12/28 03:46:03;;;;;;;6.97;2.20;;;5.00;99.90;;;;;;2019410;70;21049;-72
2021/12/28 03:48:30;;;;;;;7.80;2.15;;;5.00;99.90;;;;;;2022738;71;21044;-73
2021/12/28 03:50:56;;;;;;;5.40;2.08;;;5.00;99.90;;;;;;2021330;70;21109;-72
2021/12/28 03:53:22;;;;;;;6.75;2.20;;;5.10;99.90;;;;;;2019760;70;21122;-73
2021/12/28 03:55:48;;;;;;;5.03;2.47;;;5.20;99.90;;;;;;2019605;70;21043;-72
2021/12/28 03:58:14;;;;;;;4.00;2.20;;;5.10;99.90;;;;;;2020404;70;21021;-73
2021/12/28 04:00:41;;;;;;;10.05;3.12;;;5.10;99.90;;;;;;2021773;70;21047;-72
2021/12/28 04:03:07;;;;;;;5.80;2.17;;;5.20;99.90;;;;;;2019664;70;21120;-73
2021/12/28 04:05:34;;;;;;;5.08;2.02;;;5.30;99.90;;;;;;2023186;70;21043;-73
2021/12/28 04:08:00;;;;;;;3.45;2.20;;;5.30;99.90;;;;;;2021524;70;21044;-72
2021/12/28 04:10:32;;;;;;;5.25;1.82;;;5.30;99.90;;;;;;2021144;70;21117;-71
2021/12/28 04:12:57;;;;;;;5.72;2.17;;;5.30;99.90;;;;;;2017413;70;21053;-71
2021/12/28 04:15:23;;;;;;;9.33;2.67;;;5.30;99.90;;;;;;2022143;70;21027;-72
2021/12/28 04:17:49;;;;;;;7.37;2.10;;;5.30;99.90;;;;;;2021510;70;21046;-72
2021/12/28 04:20:15;;;;;;;6.67;2.37;;;5.30;99.90;;;;;;2020663;70;21112;-72
2021/12/28 04:22:41;;;;;;;6.40;2.17;;;5.40;99.90;;;;;;2020875;70;21055;-73
2021/12/28 04:25:07;;;;;;;4.30;1.82;;;5.40;99.90;;;;;;2021049;70;21056;-72
2021/12/28 04:27:34;;;;;;;9.58;1.92;;;5.50;99.90;;;;;;2019833;70;21425;-72
2021/12/28 04:30:00;;;;;;;9.73;2.45;;;5.50;99.90;;;;;;2021859;70;21467;-72
2021/12/28 04:32:26;;;;;;;3.65;1.80;;;5.50;99.90;;;;;;2021658;70;21529;-72
2021/12/28 04:34:52;;;;;;;6.60;1.87;;;5.50;99.90;;;;;;2021803;70;21472;-73
2021/12/28 04:37:18;;;;;;;5.87;1.82;;;5.50;99.90;;;;;;2021922;70;21115;-72
2021/12/28 04:39:44;;;;;;;7.22;2.20;;;5.70;99.90;;;;;;2020742;70;21036;-72
2021/12/28 04:42:10;;;;;;;9.23;2.40;;;5.80;99.90;;;;;;2018494;70;21004;-71
2021/12/28 04:44:36;;;;;;;5.35;2.15;;;5.70;99.90;;;;;;2020853;70;21043;-72
2021/12/28 04:47:03;;;;;;;7.72;2.22;;;5.60;99.90;;;;;;2021741;70;21101;-72
2021/12/28 04:49:29;;;;;;;7.70;2.37;;;5.80;99.90;;;;;;2018713;70;21040;-71
2021/12/28 04:51:55;;;;;;;3.85;1.57;;;5.90;99.90;;;;;;2020350;70;21456;-72
2021/12/28 04:54:22;;;;;;;5.58;1.70;;;5.80;99.90;;;;;;2019520;70;21044;-71
2021/12/28 04:56:48;;;;;;;8.25;2.02;;;5.90;99.90;;;;;;2021462;70;21153;-71
2021/12/28 04:59:14;;;;;;;7.30;2.08;;;5.90;99.90;;;;;;2019146;70;21128;-71
2021/12/28 05:01:40;;;;;;;11.20;2.17;;;5.90;99.90;;;;;;2019405;70;21181;-70
2021/12/28 05:04:06;;;;;;;5.97;2.10;;;6.00;99.90;;;;;;2020530;70;21545;-71
2021/12/28 05:06:34;;;;;;;9.33;2.37;;;5.90;99.90;;;;;;2020522;70;21446;-71
2021/12/28 05:09:00;;;;;;;6.45;2.20;;;5.90;99.90;;;;;;2019299;70;21081;-71
2021/12/28 05:11:26;;;;;;;7.83;1.85;;;6.10;99.90;;;;;;2018962;70;21116;-71
2021/12/28 05:13:52;;;;;;;11.38;2.25;;;6.00;99.90;;;;;;2020189;70;21237;-71
2021/12/28 05:16:18;;;;;;;2.83;1.65;;;6.00;99.90;;;;;;2020235;70;21025;-70
2021/12/28 05:18:45;;;;;;;4.35;1.90;;;6.10;99.90;;;;;;2019340;70;21137;-71
2021/12/28 05:21:11;;;;;;;6.90;2.08;;;6.00;99.90;;;;;;2021127;70;21157;-71
2021/12/28 05:23:37;;;;;;;7.83;1.72;;;6.00;99.90;;;;;;2019523;70;21013;-72
2021/12/28 05:26:03;;;;;;;4.10;2.00;;;6.10;99.90;;;;;;2021199;70;21179;-71
2021/12/28 05:28:29;;;;;;;3.87;2.05;;;6.20;99.90;;;;;;2018154;70;21187;-70
2021/12/28 05:30:57;;;;;;;5.83;1.77;;;6.20;99.90;;;;;;2018985;70;21046;-71
2021/12/28 05:33:23;;;;;;;8.45;1.92;;;6.20;99.90;;;;;;2019593;70;21061;-72
2021/12/28 05:35:49;;;;;;;6.90;1.72;;;6.20;99.90;;;;;;2021208;70;21051;-73
2021/12/28 05:38:15;;;;;;;6.35;1.95;;;6.10;99.90;;;;;;2019584;70;21095;-72
2021/12/28 05:40:41;;;;;;;7.55;2.52;;;6.20;99.90;;;;;;2020140;70;21083;-73
2021/12/28 05:43:08;;;;;;;3.22;1.95;;;6.10;99.90;;;;;;2021112;70;21610;-72
2021/12/28 05:45:34;;;;;;;5.28;1.62;;;6.10;99.90;;;;;;2022407;71;21052;-72
2021/12/28 05:48:00;;;;;;;5.47;1.95;;;6.00;99.90;;;;;;2021049;70;21432;-74
2021/12/28 05:50:26;;;;;;;5.83;1.72;;;6.10;99.90;;;;;;2019612;70;21117;-72
2021/12/28 05:52:52;;;;;;;9.85;2.55;;;6.20;99.90;;;;;;2020347;70;21129;-72
2021/12/28 05:55:18;;;;;;;6.67;1.37;;;6.20;99.90;;;;;;2019798;70;21086;-71
2021/12/28 05:57:44;;;;;;;6.05;2.10;;;6.20;99.90;;;;;;2022863;71;21074;-72
2021/12/28 06:00:11;;;;;;;8.98;2.35;;;6.20;99.90;;;;;;2021796;70;21206;-72
2021/12/28 06:02:37;;;;;;;10.45;2.02;;;6.30;99.90;;;;;;2020045;70;21044;-72
2021/12/28 06:05:03;;;;;;;4.42;1.75;;;6.30;99.90;;;;;;2021847;71;21080;-75
2021/12/28 06:07:30;;;;;;;4.42;1.90;;;6.30;99.90;;;;;;2021667;70;21125;-75
2021/12/28 06:09:56;;;;;;;10.05;2.12;;;6.40;99.90;;;;;;2021518;71;21013;-76
2021/12/28 06:12:22;;;;;;;5.45;2.12;;;6.20;99.90;;;;;;2022432;71;21076;-75
2021/12/28 06:14:48;;;;;;;7.50;2.05;;;6.30;99.90;;;;;;2022471;70;21124;-75
2021/12/28 06:17:14;;;;;;;15.68;2.10;;;6.40;99.90;;;;;;2020533;70;21121;-74
2021/12/28 06:19:40;;;;;;;8.13;2.12;;;6.40;99.90;;;;;;2019346;70;21039;-75
2021/12/28 06:22:06;;;;;;;5.12;1.80;;;6.40;99.90;;;;;;2020995;70;21020;-75
2021/12/28 06:24:32;;;;;;;8.03;2.62;;;6.30;99.90;;;;;;2019242;70;21151;-75
2021/12/28 06:26:59;;;;;;;5.85;1.75;;;6.40;99.90;;;;;;2020283;70;21130;-75
2021/12/28 06:29:25;;;;;;;7.37;2.20;;;6.50;99.90;;;;;;2019606;71;21032;-75
2021/12/28 06:31:51;;;;;;;3.58;1.65;;;6.70;99.90;;;;;;2019717;70;21133;-78
2021/12/28 06:34:17;;;;;;;5.35;2.00;;;6.70;99.90;;;;;;2022421;70;21055;-74
2021/12/28 06:36:43;;;;;;;3.72;1.90;;;6.80;99.90;;;;;;2020480;70;21437;-73
2021/12/28 06:39:10;;;;;;;4.85;1.87;;;6.90;99.90;;;;;;2021291;70;21112;-74
2021/12/28 06:41:36;;;;;;;4.12;1.65;;;7.00;99.90;;;;;;2021195;70;21021;-74
2021/12/28 06:44:02;;;;;;;3.30;1.60;;;7.10;99.90;;;;;;2022254;70;21623;-75
2021/12/28 06:46:28;;;;;;;1.85;1.62;;;7.20;99.90;;;;;;2020210;70;21474;-74
2021/12/28 06:48:54;;;;;;;5.28;1.37;;;7.30;99.90;;;;;;2021296;70;21475;-74
2021/12/28 06:51:20;;;;;;;1.50;1.37;;;7.40;99.90;;;;;;2021737;70;21534;-75
2021/12/28 06:53:47;;;;;;;1.50;1.35;;;7.50;99.90;;;;;;2019784;70;21047;-75
2021/12/28 06:56:13;;;;;;;3.92;1.80;;;7.50;99.90;;;;;;2021096;71;21055;-74
2021/12/28 06:58:40;;;;;;;5.12;1.37;;;7.60;99.90;;;;;;2018450;70;21040;-74
2021/12/28 07:01:06;;;;;;;2.67;1.50;;;7.60;99.90;;;;;;2021004;70;21048;-74
2021/12/28 07:03:32;;;;;;;1.20;1.10;;;7.60;99.90;;;;;;2021662;70;21094;-74
2021/12/28 07:05:59;;;;;;;3.30;1.25;;;7.50;99.90;;;;;;2022285;71;21109;-76
2021/12/28 07:08:25;;;;;;;1.25;1.15;;;7.60;99.90;;;;;;2021340;70;21121;-76
2021/12/28 07:10:51;;;;;;;2.25;1.20;;;7.70;99.90;;;;;;2021362;71;21040;-74
2021/12/28 07:13:17;;;;;;;1.15;1.00;;;7.60;99.90;;;;;;2019600;70;21550;-76
2021/12/28 07:15:44;;;;;;;2.33;1.80;;;7.60;99.90;;;;;;2021515;70;21463;-75
2021/12/28 07:18:10;;;;;;;2.02;1.62;;;7.30;99.90;;;;;;2020603;70;21460;-75
2021/12/28 07:20:36;;;;;;;1.37;1.27;;;7.40;99.90;;;;;;2020703;70;21025;-75
2021/12/28 07:23:02;;;;;;;2.70;1.70;;;7.40;99.90;;;;;;2018769;70;21094;-75
2021/12/28 07:25:29;;;;;;;4.67;2.20;;;7.40;99.90;;;;;;2021613;70;21034;-74
2021/12/28 07:27:55;;;;;;;3.30;1.92;;;7.40;99.90;;;;;;2019201;70;21059;-76
2021/12/28 07:30:21;;;;;;;3.87;1.60;;;7.20;99.90;;;;;;2021533;70;21047;-75
2021/12/28 07:32:47;;;;;;;5.67;2.00;;;7.10;99.90;;;;;;2021805;70;21448;-73
2021/12/28 07:35:13;;;;;;;3.30;1.80;;;7.20;99.90;;;;;;2020477;70;21474;-73
2021/12/28 07:37:39;;;;;;;6.53;3.12;;;7.30;99.90;;;;;;2019774;70;21450;-73
2021/12/28 07:40:05;;;;;;;3.62;2.67;;;7.30;99.90;;;;;;2021025;70;21020;-73
2021/12/28 07:42:32;;;;;;;8.15;2.95;;;7.20;99.90;;;;;;2019549;70;21079;-74
2021/12/28 07:44:58;;;;;;;4.08;2.17;;;7.30;99.90;;;;;;2022040;70;21191;-73
2021/12/28 07:47:24;;;;;;;3.67;2.05;;;7.40;99.90;;;;;;2020073;70;21105;-74
2021/12/28 07:49:50;;;;;;;4.95;1.80;;;7.60;99.90;;;;;;2019652;70;21108;-73
2021/12/28 07:52:16;;;;;;;2.25;1.40;;;7.70;99.90;;;;;;2021521;70;21024;-73
2021/12/28 07:54:42;;;;;;;2.37;1.45;;;7.90;99.90;;;;;;2022377;70;21183;-74
2021/12/28 07:57:08;;;;;;;2.60;1.70;;;8.00;99.90;;;;;;2020148;70;21044;-73
2021/12/28 07:59:34;;;;;;;3.25;1.25;;;8.10;99.90;;;;;;2018541;70;21495;-73
2021/12/28 08:02:01;;;;;;;3.20;0.98;;;8.30;99.90;;;;;;2021408;70;21471;-73
2021/12/28 08:04:28;;;;;;;1.42;0.90;;;8.30;99.90;;;;;;2020430;70;21451;-73
2021/12/28 08:06:54;;;;;;;1.10;1.00;;;8.40;99.90;;;;;;2020639;70;21042;-72
2021/12/28 08:09:20;;;;;;;3.58;0.90;;;8.50;99.90;;;;;;2019952;70;21468;-72
2021/12/28 08:11:46;;;;;;;0.82;0.60;;;8.60;99.90;;;;;;2020571;70;21584;-72
2021/12/28 08:14:12;;;;;;;1.55;0.85;;;8.60;99.90;;;;;;2023074;71;21088;-74
2021/12/28 08:16:38;;;;;;;1.20;0.72;;;8.80;99.90;;;;;;2019247;69;21186;-74
2021/12/28 08:19:06;;;;;;;1.07;0.42;;;9.00;99.90;;;;;;2021468;70;21113;-74
2021/12/28 08:21:33;;;;;;;4.37;1.00;;;9.10;99.90;;;;;;2021148;70;21547;-71
2021/12/28 08:23:59;;;;;;;2.25;0.50;;;9.20;99.90;;;;;;2021976;71;21043;-77
2021/12/28 08:26:25;;;;;;;0.50;0.50;;;9.20;99.90;;;;;;2022120;70;21040;-76
2021/12/28 08:28:51;;;;;;;2.37;0.50;;;9.40;99.90;;;;;;2016142;70;21432;-79
2021/12/28 08:31:17;;;;;;;0.50;0.45;;;9.50;99.90;;;;;;2019405;70;21452;-78
2021/12/28 08:33:43;;;;;;;0.50;0.50;;;9.60;99.90;;;;;;2019440;70;21421;-77
2021/12/28 08:36:10;;;;;;;0.75;0.70;;;9.60;99.90;;;;;;2021527;70;21498;-77
2021/12/28 08:38:38;;;;;;;3.00;0.70;;;9.60;99.90;;;;;;2021137;70;21116;-78
2021/12/28 08:41:03;;;;;;;0.75;0.70;;;9.60;99.90;;;;;;2021401;70;21243;-74
2021/12/28 08:43:30;;;;;;;0.93;0.40;;;9.60;99.90;;;;;;2019700;70;21464;-74
2021/12/28 08:45:56;;;;;;;0.30;0.30;;;9.60;99.90;;;;;;2019894;70;21166;-75
2021/12/28 08:48:23;;;;;;;6.22;0.95;;;9.70;99.90;;;;;;2020210;70;21156;-74
2021/12/28 08:50:49;;;;;;;0.50;0.50;;;9.90;99.90;;;;;;2023442;70;21409;-74
2021/12/28 08:53:15;;;;;;;2.37;0.60;;;10.00;99.90;;;;;;2020150;71;21479;-75
2021/12/28 08:55:41;;;;;;;1.10;0.50;;;10.00;99.90;;;;;;2018685;70;21435;-75
2021/12/28 08:58:07;;;;;;;0.40;0.40;;;10.00;99.90;;;;;;2020608;70;21443;-75
2021/12/28 09:00:33;;;;;;;0.42;0.40;;;10.10;99.90;;;;;;2020314;70;21567;-75
2021/12/28 09:03:00;;;;;;;3.00;0.60;;;10.10;99.90;;;;;;2020434;70;21040;-76
2021/12/28 09:05:27;;;;;;;1.20;0.50;;;10.20;99.90;;;;;;2020898;70;21044;-78
2021/12/28 09:07:53;;;;;;;3.70;0.60;;;10.10;99.90;;;;;;2018600;70;21048;-76
2021/12/28 09:10:19;;;;;;;0.50;0.50;;;10.20;99.90;;;;;;2023000;70;21040;-77
2021/12/28 09:12:45;;;;;;;0.57;0.50;;;10.30;99.90;;;;;;2021967;70;21013;-79
2021/12/28 09:15:12;;;;;;;0.80;0.47;;;10.30;99.90;;;;;;2018815;70;21051;-79
2021/12/28 09:17:39;;;;;;;1.27;0.40;;;10.30;99.90;;;;;;2020674;70;21109;-80
2021/12/28 09:20:05;;;;;;;0.30;0.30;;;10.20;99.90;;;;;;2017265;70;21100;-80
2021/12/28 09:22:31;;;;;;;1.75;0.50;;;10.30;99.90;;;;;;2019401;70;21101;-80
2021/12/28 09:24:58;;;;;;;13.95;0.68;;;10.30;99.90;;;;;;2013832;70;21128;-79
2021/12/28 09:27:24;;;;;;;6.92;0.70;;;10.40;99.90;;;;;;2021003;70;21195;-83
2021/12/28 09:29:50;;;;;;;0.60;0.60;;;10.50;99.90;;;;;;2019962;70;21015;-78
2021/12/28 09:32:16;;;;;;;0.40;0.40;;;10.50;99.90;;;;;;2018501;71;21105;-79
2021/12/28 09:34:42;;;;;;;1.37;0.60;;;10.70;99.90;;;;;;2020659;70;21047;-78
2021/12/28 09:37:08;;;;;;;0.98;0.42;;;10.70;99.90;;;;;;2021637;70;21035;-80
2021/12/28 09:39:36;;;;;;;0.80;0.80;;;10.80;99.90;;;;;;2018643;70;21198;-81
2021/12/28 09:42:02;;;;;;;1.40;0.80;;;10.80;99.90;;;;;;2022335;71;21009;-82
2021/12/28 09:44:28;;;;;;;1.55;0.72;;;10.90;99.90;;;;;;2019714;70;21238;-78
2021/12/28 09:46:57;;;;;;;0.60;0.60;;;10.90;99.90;;;;;;2020180;70;21113;-78
2021/12/28 09:49:26;;;;;;;0.60;0.60;;;10.90;99.90;;;;;;2020292;71;21552;-78
2021/12/28 09:51:52;;;;;;;0.60;0.60;;;10.90;99.90;;;;;;2020334;71;21116;-77
2021/12/28 09:54:18;;;;;;;0.80;0.60;;;10.90;99.90;;;;;;2022896;70;21040;-77
2021/12/28 09:56:45;;;;;;;0.30;0.30;;;10.90;99.90;;;;;;2022054;70;21068;-79
2021/12/28 09:59:11;;;;;;;0.40;0.40;;;10.90;99.90;;;;;;2021403;70;21055;-79
2021/12/28 10:01:37;;;;;;;1.07;0.37;;;11.00;99.90;;;;;;2020185;70;21128;-79
2021/12/28 10:04:03;;;;;;;3.08;0.57;;;11.10;99.90;;;;;;2021945;70;21168;-78
2021/12/28 10:06:29;;;;;;;0.55;0.42;;;11.00;99.90;;;;;;2021717;70;21130;-77
2021/12/28 10:08:56;;;;;;;0.70;0.40;;;11.10;99.90;;;;;;2022332;70;21080;-79
2021/12/28 10:11:22;;;;;;;0.45;0.40;;;11.20;99.90;;;;;;2019544;70;21164;-77
2021/12/28 10:13:49;;;;;;;1.05;0.60;;;11.30;99.90;;;;;;2020014;70;21024;-82
2021/12/28 10:16:15;;;;;;;1.10;0.70;;;11.30;99.90;;;;;;2022281;71;21043;-79
2021/12/28 10:18:42;;;;;;;0.65;0.50;;;11.40;99.90;;;;;;2019965;70;21036;-79
2021/12/28 10:21:08;;;;;;;0.50;0.50;;;11.70;99.90;;;;;;2021185;70;21109;-80
2021/12/28 10:23:34;;;;;;;4.47;0.42;;;11.90;99.90;;;;;;2020223;70;21051;-82
2021/12/28 10:26:01;;;;;;;0.55;0.55;;;11.80;99.90;;;;;;2022922;70;21124;-79
2021/12/28 10:28:27;;;;;;;0.70;0.50;;;11.90;99.90;;;;;;2020961;70;21024;-79
2021/12/28 10:30:53;;;;;;;0.40;0.40;;;12.00;99.90;;;;;;2023072;70;21075;-78
2021/12/28 10:33:19;;;;;;;0.75;0.50;;;11.90;99.90;;;;;;2022430;70;21107;-77
2021/12/28 10:35:45;;;;;;;0.30;0.30;;;11.70;99.90;;;;;;2019377;70;21058;-78
2021/12/28 10:38:11;;;;;;;1.65;0.30;;;11.60;99.90;;;;;;2018017;70;21050;-79
2021/12/28 10:40:37;;;;;;;0.37;0.28;;;11.70;99.90;;;;;;2018341;70;21517;-79
2021/12/28 10:43:04;;;;;;;0.20;0.20;;;11.80;99.90;;;;;;2020889;70;21588;-79
2021/12/28 10:45:30;;;;;;;0.42;0.30;;;11.80;99.90;;;;;;2021566;70;21032;-78
2021/12/28 10:47:56;;;;;;;0.53;0.30;;;11.80;99.90;;;;;;2020625;70;21057;-78
2021/12/28 10:50:23;;;;;;;0.88;0.47;;;11.90;99.90;;;;;;2019158;70;21056;-77
2021/12/28 10:53:00;;;;;;;0.90;0.40;;;12.60;99.90;;;;;;2022491;70;21113;-78
2021/12/28 10:55:16;;;;;;;0.20;0.20;;;13.40;99.90;;;;;;2017010;70;21124;-79
2021/12/28 10:57:43;;;;;;;0.47;0.40;;;13.60;99.90;;;;;;2018427;70;21113;-77
2021/12/28 11:00:09;;;;;;;0.65;0.40;;;13.00;99.90;;;;;;2008106;70;21019;-79
2021/12/28 11:02:35;;;;;;;0.28;0.28;;;12.60;99.90;;;;;;2021343;70;21059;-79
2021/12/28 11:05:01;;;;;;;0.20;0.20;;;12.50;99.90;;;;;;2021887;70;21040;-79
2021/12/28 11:07:30;;;;;;;0.40;0.20;;;12.50;99.90;;;;;;2021364;70;21129;-80
2021/12/28 11:09:55;;;;;;;2.17;0.25;;;12.60;99.90;;;;;;2018071;70;21079;-79
2021/12/28 11:12:21;;;;;;;0.75;0.30;;;12.70;99.90;;;;;;2021170;71;21035;-78
2021/12/28 11:14:47;;;;;;;0.30;0.30;;;12.90;99.90;;;;;;2019870;70;21042;-77
2021/12/28 11:17:13;;;;;;;1.10;0.25;;;13.10;99.90;;;;;;2020562;70;21276;-78
2021/12/28 11:19:39;;;;;;;0.60;0.60;;;13.50;99.90;;;;;;2019936;70;21039;-79
2021/12/28 11:22:07;;;;;;;1.95;1.77;;;13.30;99.90;;;;;;2020222;70;21017;-80
2021/12/28 11:24:33;;;;;;;0.40;0.40;;;13.20;99.90;;;;;;2021679;70;21121;-79
2021/12/28 11:26:59;;;;;;;0.90;0.70;;;12.90;99.90;;;;;;2018808;70;21053;-78
2021/12/28 11:29:25;;;;;;;1.30;0.40;;;12.80;99.90;;;;;;2019043;70;21048;-78
2021/12/28 11:31:51;;;;;;;2.47;0.40;;;12.80;99.90;;;;;;2022496;70;21121;-78
2021/12/28 11:34:17;;;;;;;0.93;0.30;;;12.80;99.90;;;;;;2022456;70;21037;-78
2021/12/28 11:36:44;;;;;;;0.45;0.45;;;12.80;99.90;;;;;;2021456;70;21086;-79
2021/12/28 11:39:10;;;;;;;1.02;0.50;;;13.00;99.90;;;;;;2021053;70;21128;-79
2021/12/28 11:41:37;;;;;;;0.75;0.40;;;13.20;99.90;;;;;;2020636;70;21113;-79
2021/12/28 11:44:03;;;;;;;0.30;0.30;;;13.10;99.90;;;;;;2018859;70;21109;-80
2021/12/28 11:46:29;;;;;;;0.50;0.33;;;13.20;99.90;;;;;;2017835;70;21202;-79
2021/12/28 11:48:55;;;;;;;0.90;0.35;;;13.10;99.90;;;;;;2018444;70;21113;-79
2021/12/28 11:51:22;;;;;;;0.90;0.40;;;13.10;99.90;;;;;;2013748;70;21059;-79
2021/12/28 11:53:55;;;;;;;2.40;0.50;;;13.00;99.90;;;;;;2022081;70;21055;-83
2021/12/28 11:56:23;;;;;;;0.20;0.20;;;12.90;99.90;;;;;;2019668;70;21096;-79
2021/12/28 11:58:49;;;;;;;0.20;0.20;;;12.80;99.90;;;;;;2019107;70;21048;-80
2021/12/28 12:01:15;;;;;;;0.53;0.40;;;12.80;99.90;;;;;;2020555;70;21099;-80
2021/12/28 12:03:43;;;;;;;0.70;0.40;;;12.80;99.90;;;;;;2021102;70;21034;-79
2021/12/28 12:06:09;;;;;;;0.70;0.50;;;12.80;99.90;;;;;;2018599;70;21468;-77
2021/12/28 12:08:38;;;;;;;1.05;0.42;;;12.80;99.90;;;;;;2021804;70;21080;-79
2021/12/28 12:11:03;;;;;;;0.60;0.35;;;12.60;99.90;;;;;;2018656;70;21070;-83
2021/12/28 12:13:30;;;;;;;0.30;0.30;;;12.50;99.90;;;;;;2022047;70;21028;-77
2021/12/28 12:15:56;;;;;;;1.17;0.30;;;12.70;99.90;;;;;;2020230;71;21109;-77
2021/12/28 12:18:22;;;;;;;0.85;0.40;;;12.60;99.90;;;;;;2020505;70;21114;-75
2021/12/28 12:20:48;;;;;;;0.72;0.37;;;12.60;99.90;;;;;;2020387;70;21114;-75
2021/12/28 12:23:14;;;;;;;0.40;0.30;;;12.50;99.90;;;;;;2023152;70;21094;-76
2021/12/28 12:25:40;;;;;;;0.30;0.30;;;12.40;99.90;;;;;;2019180;71;21035;-77
2021/12/28 12:28:06;;;;;;;0.50;0.47;;;12.30;99.90;;;;;;2018425;71;21082;-80
2021/12/28 12:30:32;;;;;;;0.90;0.55;;;12.30;99.90;;;;;;2019441;70;21020;-75
2021/12/28 12:33:00;;;;;;;0.50;0.50;;;12.20;99.90;;;;;;2020952;70;21121;-74
2021/12/28 12:35:26;;;;;;;0.47;0.45;;;12.10;99.90;;;;;;2021868;70;21047;-75
2021/12/28 12:37:52;;;;;;;1.40;0.50;;;12.10;99.90;;;;;;2023674;71;21041;-75
2021/12/28 12:40:20;;;;;;;0.75;0.33;;;12.10;99.90;;;;;;2012784;70;21013;-76
2021/12/28 12:42:46;;;;;;;7.08;0.70;;;12.10;99.90;;;;;;2021218;70;21055;-78
2021/12/28 12:45:12;;;;;;;0.68;0.50;;;12.20;99.90;;;;;;2021185;70;21039;-78
2021/12/28 12:47:39;;;;;;;0.62;0.40;;;12.20;99.90;;;;;;2018596;70;21460;-77